sensor_id;sensor_type;location;lat;lon;timestamp;P1;durP1;ratioP1;P2;durP2;ratioP2
52918;SDS011;38793;52.690;6.812;2022-07-04T08:12:42;7.97;;;3.55;;
52918;SDS011;38793;52.690;6.812;2022-07-04T08:15:08;6.70;;;2.80;;
52918;SDS011;38793;52.690;6.812;2022-07-04T08:17:34;8.68;;;4.10;;
52918;SDS011;38793;52.690;6.812;2022-07-04T08:20:00;9.93;;;3.80;;
52918;SDS011;38793;52.690;6.812;2022-07-04T08:22:26;7.88;;;3.42;;
52918;SDS011;38793;52.690;6.812;2022-07-04T08:24:52;9.38;;;4.93;;
52918;SDS011;38793;52.690;6.812;2022-07-04T08:27:17;12.73;;;3.47;;
52918;SDS011;38793;52.690;6.812;2022-07-04T08:29:43;10.15;;;3.40;;
52918;SDS011;38793;52.690;6.812;2022-07-04T08:32:09;9.32;;;3.70;;
52918;SDS011;38793;52.690;6.812;2022-07-04T08:34:35;8.63;;;4.50;;
52918;SDS011;38793;52.690;6.812;2022-07-04T08:37:00;8.73;;;3.65;;
52918;SDS011;38793;52.690;6.812;2022-07-04T08:39:26;5.93;;;2.97;;
52918;SDS011;38793;52.690;6.812;2022-07-04T08:41:53;8.95;;;3.60;;
52918;SDS011;38793;52.690;6.812;2022-07-04T08:44:24;16.98;;;5.10;;
52918;SDS011;38793;52.690;6.812;2022-07-04T08:46:52;11.05;;;3.00;;
52918;SDS011;38793;52.690;6.812;2022-07-04T08:49:23;13.15;;;4.60;;
52918;SDS011;38793;52.690;6.812;2022-07-04T08:51:52;9.25;;;2.70;;
52918;SDS011;38793;52.690;6.812;2022-07-04T08:54:37;18.67;;;4.25;;
52918;SDS011;38793;52.690;6.812;2022-07-04T08:57:23;9.20;;;2.80;;
52918;SDS011;38793;52.690;6.812;2022-07-04T09:00:07;7.00;;;3.47;;
52918;SDS011;38793;52.690;6.812;2022-07-04T09:02:34;5.10;;;3.40;;
52918;SDS011;38793;52.690;6.812;2022-07-04T09:05:02;5.63;;;3.13;;
52918;SDS011;38793;52.690;6.812;2022-07-04T09:07:30;8.73;;;3.53;;
52918;SDS011;38793;52.690;6.812;2022-07-04T09:09:56;7.82;;;3.28;;
52918;SDS011;38793;52.690;6.812;2022-07-04T09:12:23;6.28;;;2.80;;
52918;SDS011;38793;52.690;6.812;2022-07-04T09:14:49;8.95;;;3.13;;
52918;SDS011;38793;52.690;6.812;2022-07-04T09:17:16;6.13;;;2.35;;
52918;SDS011;38793;52.690;6.812;2022-07-04T09:19:42;8.45;;;3.00;;
52918;SDS011;38793;52.690;6.812;2022-07-04T09:22:08;4.88;;;1.98;;
52918;SDS011;38793;52.690;6.812;2022-07-04T09:27:36;6.32;;;1.92;;
52918;SDS011;38793;52.690;6.812;2022-07-04T09:30:04;5.65;;;2.10;;
52918;SDS011;38793;52.690;6.812;2022-07-04T09:32:35;7.63;;;1.90;;
52918;SDS011;38793;52.690;6.812;2022-07-04T09:35:02;12.50;;;2.22;;
52918;SDS011;38793;52.690;6.812;2022-07-04T09:37:34;6.72;;;1.83;;
52918;SDS011;38793;52.690;6.812;2022-07-04T09:40:05;6.15;;;1.40;;
52918;SDS011;38793;52.690;6.812;2022-07-04T09:42:39;6.82;;;1.27;;
52918;SDS011;38793;52.690;6.812;2022-07-04T09:45:06;5.10;;;1.20;;
52918;SDS011;38793;52.690;6.812;2022-07-04T09:47:34;8.35;;;1.67;;
52918;SDS011;38793;52.690;6.812;2022-07-04T09:50:12;6.68;;;1.33;;
52918;SDS011;38793;52.690;6.812;2022-07-04T09:55:31;7.28;;;1.17;;
52918;SDS011;38793;52.690;6.812;2022-07-04T09:57:59;2.22;;;0.50;;
52918;SDS011;38793;52.690;6.812;2022-07-04T10:00:27;5.47;;;1.08;;
52918;SDS011;38793;52.690;6.812;2022-07-04T10:05:47;5.47;;;0.65;;
52918;SDS011;38793;52.690;6.812;2022-07-04T10:08:33;1.48;;;0.40;;
52918;SDS011;38793;52.690;6.812;2022-07-04T10:10:59;2.72;;;0.57;;
52918;SDS011;38793;52.690;6.812;2022-07-04T10:13:26;2.78;;;0.50;;
52918;SDS011;38793;52.690;6.812;2022-07-04T10:15:52;1.80;;;0.60;;
52918;SDS011;38793;52.690;6.812;2022-07-04T10:18:19;4.60;;;0.90;;
52918;SDS011;38793;52.690;6.812;2022-07-04T10:20:46;4.00;;;0.40;;
52918;SDS011;38793;52.690;6.812;2022-07-04T10:23:14;5.43;;;0.75;;
52918;SDS011;38793;52.690;6.812;2022-07-04T10:25:40;3.67;;;0.50;;
52918;SDS011;38793;52.690;6.812;2022-07-04T10:28:07;1.52;;;0.63;;
52918;SDS011;38793;52.690;6.812;2022-07-04T10:30:35;2.75;;;0.50;;
52918;SDS011;38793;52.690;6.812;2022-07-04T10:33:03;2.83;;;0.40;;
52918;SDS011;38793;52.690;6.812;2022-07-04T10:35:49;3.42;;;0.40;;
52918;SDS011;38793;52.690;6.812;2022-07-04T10:38:20;2.33;;;0.30;;
52918;SDS011;38793;52.690;6.812;2022-07-04T10:48:49;3.47;;;0.50;;
52918;SDS011;38793;52.690;6.812;2022-07-04T10:51:20;1.67;;;0.30;;
52918;SDS011;38793;52.690;6.812;2022-07-04T11:02:00;3.85;;;0.30;;
52918;SDS011;38793;52.690;6.812;2022-07-04T11:18:09;3.33;;;0.40;;
52918;SDS011;38793;52.690;6.812;2022-07-04T11:20:45;0.80;;;0.40;;
52918;SDS011;38793;52.690;6.812;2022-07-04T11:23:15;2.72;;;0.30;;
52918;SDS011;38793;52.690;6.812;2022-07-04T11:25:44;2.67;;;0.40;;
52918;SDS011;38793;52.690;6.812;2022-07-04T11:28:21;4.43;;;0.45;;
52918;SDS011;38793;52.690;6.812;2022-07-04T11:30:54;3.35;;;1.27;;
52918;SDS011;38793;52.690;6.812;2022-07-04T11:33:23;1.50;;;0.30;;
52918;SDS011;38793;52.690;6.812;2022-07-04T11:38:56;4.63;;;0.77;;
52918;SDS011;38793;52.690;6.812;2022-07-04T11:44:13;2.88;;;0.60;;
52918;SDS011;38793;52.690;6.812;2022-07-04T11:49:47;1.88;;;0.30;;
52918;SDS011;38793;52.690;6.812;2022-07-04T11:52:14;3.42;;;0.35;;
52918;SDS011;38793;52.690;6.812;2022-07-04T11:54:42;1.48;;;0.50;;
52918;SDS011;38793;52.690;6.812;2022-07-04T11:57:13;1.60;;;0.50;;
52918;SDS011;38793;52.690;6.812;2022-07-04T11:59:40;2.90;;;0.70;;
52918;SDS011;38793;52.690;6.812;2022-07-04T12:02:10;3.75;;;0.70;;
52918;SDS011;38793;52.690;6.812;2022-07-04T12:04:37;4.90;;;1.05;;
52918;SDS011;38793;52.690;6.812;2022-07-04T12:07:13;0.90;;;0.35;;
52918;SDS011;38793;52.690;6.812;2022-07-04T12:09:40;2.13;;;0.30;;
52918;SDS011;38793;52.690;6.812;2022-07-04T12:12:07;1.27;;;0.52;;
52918;SDS011;38793;52.690;6.812;2022-07-04T12:14:34;1.88;;;0.30;;
52918;SDS011;38793;52.690;6.812;2022-07-04T12:22:40;6.57;;;0.50;;
52918;SDS011;38793;52.690;6.812;2022-07-04T12:25:18;1.33;;;0.30;;
52918;SDS011;38793;52.690;6.812;2022-07-04T12:30:24;0.85;;;0.43;;
52918;SDS011;38793;52.690;6.812;2022-07-04T12:32:56;1.67;;;0.30;;
52918;SDS011;38793;52.690;6.812;2022-07-04T12:38:42;1.65;;;0.30;;
52918;SDS011;38793;52.690;6.812;2022-07-04T12:46:07;1.08;;;0.30;;
52918;SDS011;38793;52.690;6.812;2022-07-04T12:48:34;1.95;;;0.30;;
52918;SDS011;38793;52.690;6.812;2022-07-04T12:53:41;2.05;;;0.28;;
52918;SDS011;38793;52.690;6.812;2022-07-04T12:56:08;3.95;;;0.30;;
52918;SDS011;38793;52.690;6.812;2022-07-04T12:58:34;2.13;;;0.30;;
52918;SDS011;38793;52.690;6.812;2022-07-04T13:03:27;0.63;;;0.30;;
52918;SDS011;38793;52.690;6.812;2022-07-04T13:05:54;1.75;;;0.20;;
52918;SDS011;38793;52.690;6.812;2022-07-04T13:08:22;0.95;;;0.35;;
52918;SDS011;38793;52.690;6.812;2022-07-04T13:13:33;10.05;;;0.95;;
52918;SDS011;38793;52.690;6.812;2022-07-04T13:18:25;1.10;;;0.30;;
52918;SDS011;38793;52.690;6.812;2022-07-04T13:23:16;1.30;;;0.50;;
52918;SDS011;38793;52.690;6.812;2022-07-04T13:25:42;1.95;;;0.30;;
52918;SDS011;38793;52.690;6.812;2022-07-04T13:30:33;1.55;;;0.20;;
52918;SDS011;38793;52.690;6.812;2022-07-04T13:32:58;2.63;;;0.45;;
52918;SDS011;38793;52.690;6.812;2022-07-04T13:37:49;1.55;;;0.30;;
52918;SDS011;38793;52.690;6.812;2022-07-04T13:40:15;2.00;;;0.20;;
52918;SDS011;38793;52.690;6.812;2022-07-04T13:45:22;3.63;;;0.40;;
52918;SDS011;38793;52.690;6.812;2022-07-04T13:50:13;1.75;;;0.20;;
52918;SDS011;38793;52.690;6.812;2022-07-04T13:55:04;3.03;;;0.20;;
52918;SDS011;38793;52.690;6.812;2022-07-04T13:57:30;2.97;;;0.30;;
52918;SDS011;38793;52.690;6.812;2022-07-04T14:02:21;1.15;;;0.20;;
52918;SDS011;38793;52.690;6.812;2022-07-04T14:04:47;4.50;;;0.20;;
52918;SDS011;38793;52.690;6.812;2022-07-04T14:07:12;0.50;;;0.10;;
52918;SDS011;38793;52.690;6.812;2022-07-04T14:09:38;1.27;;;0.30;;
52918;SDS011;38793;52.690;6.812;2022-07-04T14:12:04;2.33;;;0.20;;
52918;SDS011;38793;52.690;6.812;2022-07-04T14:14:30;2.60;;;0.20;;
52918;SDS011;38793;52.690;6.812;2022-07-04T14:19:21;1.08;;;0.35;;
52918;SDS011;38793;52.690;6.812;2022-07-04T14:21:47;2.70;;;0.20;;
52918;SDS011;38793;52.690;6.812;2022-07-04T14:24:13;1.45;;;0.30;;
52918;SDS011;38793;52.690;6.812;2022-07-04T14:31:32;4.65;;;0.40;;
52918;SDS011;38793;52.690;6.812;2022-07-04T14:33:57;0.88;;;0.30;;
52918;SDS011;38793;52.690;6.812;2022-07-04T14:36:23;2.72;;;0.20;;
52918;SDS011;38793;52.690;6.812;2022-07-04T14:41:14;2.70;;;0.20;;
52918;SDS011;38793;52.690;6.812;2022-07-04T14:43:40;3.47;;;0.45;;
52918;SDS011;38793;52.690;6.812;2022-07-04T14:46:07;2.83;;;0.30;;
52918;SDS011;38793;52.690;6.812;2022-07-04T14:50:58;2.85;;;0.40;;
52918;SDS011;38793;52.690;6.812;2022-07-04T14:55:50;0.60;;;0.20;;
52918;SDS011;38793;52.690;6.812;2022-07-04T14:58:16;1.30;;;0.20;;
52918;SDS011;38793;52.690;6.812;2022-07-04T15:03:07;1.23;;;0.20;;
52918;SDS011;38793;52.690;6.812;2022-07-04T15:07:58;1.80;;;0.30;;
52918;SDS011;38793;52.690;6.812;2022-07-04T15:12:49;4.32;;;0.20;;
52918;SDS011;38793;52.690;6.812;2022-07-04T15:15:15;1.83;;;0.10;;
52918;SDS011;38793;52.690;6.812;2022-07-04T15:20:07;1.85;;;0.20;;
52918;SDS011;38793;52.690;6.812;2022-07-04T15:22:51;2.08;;;0.10;;
52918;SDS011;38793;52.690;6.812;2022-07-04T15:25:36;1.02;;;0.20;;
52918;SDS011;38793;52.690;6.812;2022-07-04T15:30:27;4.00;;;0.20;;
52918;SDS011;38793;52.690;6.812;2022-07-04T15:32:52;2.53;;;0.20;;
52918;SDS011;38793;52.690;6.812;2022-07-04T15:37:43;2.33;;;0.40;;
52918;SDS011;38793;52.690;6.812;2022-07-04T15:40:09;1.58;;;0.03;;
52918;SDS011;38793;52.690;6.812;2022-07-04T15:45:00;2.95;;;0.43;;
52918;SDS011;38793;52.690;6.812;2022-07-04T15:49:51;1.77;;;0.20;;
52918;SDS011;38793;52.690;6.812;2022-07-04T15:54:42;1.20;;;0.10;;
52918;SDS011;38793;52.690;6.812;2022-07-04T15:57:08;3.80;;;0.17;;
52918;SDS011;38793;52.690;6.812;2022-07-04T16:01:59;0.73;;;0.17;;
52918;SDS011;38793;52.690;6.812;2022-07-04T16:06:50;5.50;;;0.13;;
52918;SDS011;38793;52.690;6.812;2022-07-04T16:11:41;0.68;;;0.20;;
52918;SDS011;38793;52.690;6.812;2022-07-04T16:16:33;6.90;;;0.40;;
52918;SDS011;38793;52.690;6.812;2022-07-04T16:18:59;1.02;;;0.10;;
52918;SDS011;38793;52.690;6.812;2022-07-04T16:21:25;0.65;;;0.10;;
52918;SDS011;38793;52.690;6.812;2022-07-04T16:26:17;2.15;;;0.20;;
52918;SDS011;38793;52.690;6.812;2022-07-04T16:31:08;3.30;;;0.30;;
52918;SDS011;38793;52.690;6.812;2022-07-04T16:35:59;0.73;;;0.10;;
52918;SDS011;38793;52.690;6.812;2022-07-04T16:40:50;1.77;;;0.20;;
52918;SDS011;38793;52.690;6.812;2022-07-04T16:45:41;2.03;;;0.20;;
52918;SDS011;38793;52.690;6.812;2022-07-04T16:50:33;2.58;;;0.20;;
52918;SDS011;38793;52.690;6.812;2022-07-04T16:53:01;1.38;;;0.10;;
52918;SDS011;38793;52.690;6.812;2022-07-04T16:55:31;0.70;;;0.10;;
52918;SDS011;38793;52.690;6.812;2022-07-04T16:57:57;1.40;;;0.30;;
52918;SDS011;38793;52.690;6.812;2022-07-04T17:02:48;2.22;;;0.40;;
52918;SDS011;38793;52.690;6.812;2022-07-04T17:07:39;0.93;;;0.30;;
52918;SDS011;38793;52.690;6.812;2022-07-04T17:12:30;3.00;;;0.15;;
52918;SDS011;38793;52.690;6.812;2022-07-04T17:19:49;0.50;;;0.10;;
52918;SDS011;38793;52.690;6.812;2022-07-04T17:24:40;1.70;;;0.20;;
52918;SDS011;38793;52.690;6.812;2022-07-04T17:29:31;1.98;;;0.20;;
52918;SDS011;38793;52.690;6.812;2022-07-04T17:34:22;1.98;;;0.13;;
52918;SDS011;38793;52.690;6.812;2022-07-04T17:39:15;0.65;;;0.20;;
52918;SDS011;38793;52.690;6.812;2022-07-04T17:44:08;1.05;;;0.10;;
52918;SDS011;38793;52.690;6.812;2022-07-04T17:46:37;2.42;;;0.20;;
52918;SDS011;38793;52.690;6.812;2022-07-04T17:49:05;0.77;;;0.20;;
52918;SDS011;38793;52.690;6.812;2022-07-04T17:51:34;1.35;;;0.08;;
52918;SDS011;38793;52.690;6.812;2022-07-04T17:54:00;8.75;;;0.80;;
52918;SDS011;38793;52.690;6.812;2022-07-04T17:58:51;1.63;;;0.17;;
52918;SDS011;38793;52.690;6.812;2022-07-04T18:03:42;2.20;;;0.10;;
52918;SDS011;38793;52.690;6.812;2022-07-04T18:08:34;1.85;;;0.20;;
52918;SDS011;38793;52.690;6.812;2022-07-04T18:13:25;0.30;;;0.10;;
52918;SDS011;38793;52.690;6.812;2022-07-04T18:18:17;1.75;;;0.10;;
52918;SDS011;38793;52.690;6.812;2022-07-04T18:20:42;3.10;;;0.28;;
52918;SDS011;38793;52.690;6.812;2022-07-04T18:25:35;0.57;;;0.10;;
52918;SDS011;38793;52.690;6.812;2022-07-04T18:30:26;2.83;;;0.13;;
52918;SDS011;38793;52.690;6.812;2022-07-04T18:35:17;2.00;;;0.10;;
52918;SDS011;38793;52.690;6.812;2022-07-04T18:40:08;0.88;;;0.20;;
52918;SDS011;38793;52.690;6.812;2022-07-04T18:42:53;0.40;;;0.10;;
52918;SDS011;38793;52.690;6.812;2022-07-04T18:45:37;2.75;;;0.20;;
52918;SDS011;38793;52.690;6.812;2022-07-04T18:48:03;2.95;;;0.20;;
52918;SDS011;38793;52.690;6.812;2022-07-04T18:52:54;2.75;;;0.20;;
52918;SDS011;38793;52.690;6.812;2022-07-04T18:57:45;1.25;;;0.10;;
52918;SDS011;38793;52.690;6.812;2022-07-04T19:02:37;8.65;;;0.30;;
52918;SDS011;38793;52.690;6.812;2022-07-04T19:05:02;0.55;;;0.20;;
52918;SDS011;38793;52.690;6.812;2022-07-04T19:09:54;1.65;;;0.20;;
52918;SDS011;38793;52.690;6.812;2022-07-04T19:12:20;1.38;;;0.30;;
52918;SDS011;38793;52.690;6.812;2022-07-04T19:14:47;2.13;;;0.20;;
52918;SDS011;38793;52.690;6.812;2022-07-04T19:19:39;1.30;;;0.20;;
52918;SDS011;38793;52.690;6.812;2022-07-04T19:24:30;1.77;;;0.38;;
52918;SDS011;38793;52.690;6.812;2022-07-04T19:29:21;1.83;;;0.30;;
52918;SDS011;38793;52.690;6.812;2022-07-04T19:31:47;0.60;;;0.10;;
52918;SDS011;38793;52.690;6.812;2022-07-04T19:34:13;2.53;;;0.20;;
52918;SDS011;38793;52.690;6.812;2022-07-04T19:39:04;2.92;;;0.20;;
52918;SDS011;38793;52.690;6.812;2022-07-04T19:41:29;0.98;;;0.20;;
52918;SDS011;38793;52.690;6.812;2022-07-04T19:43:55;0.88;;;0.13;;
52918;SDS011;38793;52.690;6.812;2022-07-04T19:46:21;2.10;;;0.20;;
52918;SDS011;38793;52.690;6.812;2022-07-04T19:48:46;3.10;;;0.25;;
52918;SDS011;38793;52.690;6.812;2022-07-04T19:51:12;1.13;;;0.25;;
52918;SDS011;38793;52.690;6.812;2022-07-04T19:53:38;2.17;;;0.13;;
52918;SDS011;38793;52.690;6.812;2022-07-04T19:56:03;0.20;;;0.10;;
52918;SDS011;38793;52.690;6.812;2022-07-04T19:58:30;0.90;;;0.20;;
52918;SDS011;38793;52.690;6.812;2022-07-04T20:00:58;3.53;;;0.20;;
52918;SDS011;38793;52.690;6.812;2022-07-04T20:03:24;2.15;;;0.30;;
52918;SDS011;38793;52.690;6.812;2022-07-04T20:05:50;1.35;;;0.20;;
52918;SDS011;38793;52.690;6.812;2022-07-04T20:08:16;0.70;;;0.10;;
52918;SDS011;38793;52.690;6.812;2022-07-04T20:13:08;1.65;;;0.32;;
52918;SDS011;38793;52.690;6.812;2022-07-04T20:15:36;0.93;;;0.20;;
52918;SDS011;38793;52.690;6.812;2022-07-04T20:18:05;2.63;;;0.20;;
52918;SDS011;38793;52.690;6.812;2022-07-04T20:20:31;2.53;;;0.52;;
52918;SDS011;38793;52.690;6.812;2022-07-04T20:22:57;2.13;;;0.25;;
52918;SDS011;38793;52.690;6.812;2022-07-04T20:25:25;2.22;;;0.15;;
52918;SDS011;38793;52.690;6.812;2022-07-04T20:27:51;4.20;;;0.20;;
52918;SDS011;38793;52.690;6.812;2022-07-04T20:30:18;3.30;;;0.85;;
52918;SDS011;38793;52.690;6.812;2022-07-04T20:35:11;1.40;;;0.20;;
52918;SDS011;38793;52.690;6.812;2022-07-04T20:37:39;0.90;;;0.30;;
52918;SDS011;38793;52.690;6.812;2022-07-04T20:40:05;2.28;;;0.47;;
52918;SDS011;38793;52.690;6.812;2022-07-04T20:42:32;1.38;;;0.32;;
52918;SDS011;38793;52.690;6.812;2022-07-04T20:44:58;3.13;;;0.20;;
52918;SDS011;38793;52.690;6.812;2022-07-04T20:47:25;2.17;;;0.55;;
52918;SDS011;38793;52.690;6.812;2022-07-04T20:49:52;2.53;;;0.20;;
52918;SDS011;38793;52.690;6.812;2022-07-04T20:52:17;2.22;;;0.25;;
52918;SDS011;38793;52.690;6.812;2022-07-04T20:54:43;0.43;;;0.20;;
52918;SDS011;38793;52.690;6.812;2022-07-04T20:57:09;3.60;;;0.60;;
52918;SDS011;38793;52.690;6.812;2022-07-04T20:59:35;2.72;;;1.02;;
52918;SDS011;38793;52.690;6.812;2022-07-04T21:04:28;1.23;;;0.30;;
52918;SDS011;38793;52.690;6.812;2022-07-04T21:06:53;1.58;;;0.70;;
52918;SDS011;38793;52.690;6.812;2022-07-04T21:09:19;1.20;;;0.40;;
52918;SDS011;38793;52.690;6.812;2022-07-04T21:11:44;0.95;;;0.32;;
52918;SDS011;38793;52.690;6.812;2022-07-04T21:14:10;1.65;;;0.50;;
52918;SDS011;38793;52.690;6.812;2022-07-04T21:16:35;2.10;;;0.30;;
52918;SDS011;38793;52.690;6.812;2022-07-04T21:19:01;1.05;;;0.32;;
52918;SDS011;38793;52.690;6.812;2022-07-04T21:21:26;1.20;;;0.40;;
52918;SDS011;38793;52.690;6.812;2022-07-04T21:23:52;2.05;;;0.40;;
52918;SDS011;38793;52.690;6.812;2022-07-04T21:26:17;2.58;;;0.30;;
52918;SDS011;38793;52.690;6.812;2022-07-04T21:28:43;2.90;;;0.63;;
52918;SDS011;38793;52.690;6.812;2022-07-04T21:31:09;2.60;;;0.50;;
52918;SDS011;38793;52.690;6.812;2022-07-04T21:33:34;3.42;;;0.40;;
52918;SDS011;38793;52.690;6.812;2022-07-04T21:36:01;2.35;;;0.50;;
52918;SDS011;38793;52.690;6.812;2022-07-04T21:38:27;2.88;;;0.35;;
52918;SDS011;38793;52.690;6.812;2022-07-04T21:43:21;1.35;;;0.40;;
52918;SDS011;38793;52.690;6.812;2022-07-04T21:45:47;2.38;;;0.30;;
52918;SDS011;38793;52.690;6.812;2022-07-04T21:48:13;0.85;;;0.30;;
52918;SDS011;38793;52.690;6.812;2022-07-04T21:50:38;0.85;;;0.20;;
52918;SDS011;38793;52.690;6.812;2022-07-04T21:53:04;1.90;;;0.20;;
52918;SDS011;38793;52.690;6.812;2022-07-04T21:57:56;1.58;;;0.40;;
52918;SDS011;38793;52.690;6.812;2022-07-04T22:00:25;1.60;;;0.52;;
52918;SDS011;38793;52.690;6.812;2022-07-04T22:02:51;1.52;;;0.47;;
52918;SDS011;38793;52.690;6.812;2022-07-04T22:05:16;3.53;;;1.65;;
52918;SDS011;38793;52.690;6.812;2022-07-04T22:07:42;3.90;;;0.50;;
52918;SDS011;38793;52.690;6.812;2022-07-04T22:10:09;0.90;;;0.40;;
52918;SDS011;38793;52.690;6.812;2022-07-04T22:12:36;0.90;;;0.40;;
52918;SDS011;38793;52.690;6.812;2022-07-04T22:15:03;2.72;;;0.60;;
52918;SDS011;38793;52.690;6.812;2022-07-04T22:17:32;1.83;;;0.60;;
52918;SDS011;38793;52.690;6.812;2022-07-04T22:19:58;1.30;;;0.52;;
52918;SDS011;38793;52.690;6.812;2022-07-04T22:22:24;1.50;;;0.75;;
52918;SDS011;38793;52.690;6.812;2022-07-04T22:24:50;2.30;;;0.50;;
52918;SDS011;38793;52.690;6.812;2022-07-04T22:27:16;2.00;;;0.75;;
52918;SDS011;38793;52.690;6.812;2022-07-04T22:29:42;2.67;;;0.57;;
52918;SDS011;38793;52.690;6.812;2022-07-04T22:32:08;1.52;;;0.50;;
52918;SDS011;38793;52.690;6.812;2022-07-04T22:34:34;4.55;;;1.17;;
52918;SDS011;38793;52.690;6.812;2022-07-04T22:37:00;0.90;;;0.55;;
52918;SDS011;38793;52.690;6.812;2022-07-04T22:39:25;1.83;;;0.60;;
52918;SDS011;38793;52.690;6.812;2022-07-04T22:41:51;2.85;;;0.40;;
52918;SDS011;38793;52.690;6.812;2022-07-04T22:44:16;5.72;;;0.52;;
52918;SDS011;38793;52.690;6.812;2022-07-04T22:46:42;1.73;;;0.85;;
52918;SDS011;38793;52.690;6.812;2022-07-04T22:49:07;2.55;;;0.80;;
52918;SDS011;38793;52.690;6.812;2022-07-04T22:51:34;2.67;;;0.93;;
52918;SDS011;38793;52.690;6.812;2022-07-04T22:53:59;4.43;;;1.00;;
52918;SDS011;38793;52.690;6.812;2022-07-04T22:56:44;1.30;;;0.80;;
52918;SDS011;38793;52.690;6.812;2022-07-04T22:59:10;2.72;;;1.20;;
52918;SDS011;38793;52.690;6.812;2022-07-04T23:01:35;2.20;;;0.90;;
52918;SDS011;38793;52.690;6.812;2022-07-04T23:04:01;2.25;;;1.00;;
52918;SDS011;38793;52.690;6.812;2022-07-04T23:06:26;2.63;;;1.45;;
52918;SDS011;38793;52.690;6.812;2022-07-04T23:08:52;4.28;;;1.33;;
52918;SDS011;38793;52.690;6.812;2022-07-04T23:11:18;1.25;;;1.15;;
52918;SDS011;38793;52.690;6.812;2022-07-04T23:13:43;1.63;;;1.40;;
52918;SDS011;38793;52.690;6.812;2022-07-04T23:16:09;1.60;;;1.50;;
52918;SDS011;38793;52.690;6.812;2022-07-04T23:18:35;4.30;;;1.58;;
52918;SDS011;38793;52.690;6.812;2022-07-04T23:21:01;3.63;;;1.35;;
52918;SDS011;38793;52.690;6.812;2022-07-04T23:23:26;2.53;;;1.63;;
52918;SDS011;38793;52.690;6.812;2022-07-04T23:25:52;2.70;;;1.45;;
52918;SDS011;38793;52.690;6.812;2022-07-04T23:28:18;4.30;;;1.30;;
52918;SDS011;38793;52.690;6.812;2022-07-04T23:30:43;4.13;;;1.65;;
52918;SDS011;38793;52.690;6.812;2022-07-04T23:33:09;1.55;;;0.90;;
52918;SDS011;38793;52.690;6.812;2022-07-04T23:35:34;0.93;;;0.70;;
52918;SDS011;38793;52.690;6.812;2022-07-04T23:38:00;1.55;;;0.82;;
52918;SDS011;38793;52.690;6.812;2022-07-04T23:40:25;2.47;;;0.77;;
52918;SDS011;38793;52.690;6.812;2022-07-04T23:42:51;1.73;;;0.77;;
52918;SDS011;38793;52.690;6.812;2022-07-04T23:45:17;1.60;;;0.77;;
52918;SDS011;38793;52.690;6.812;2022-07-04T23:47:42;1.58;;;0.60;;
52918;SDS011;38793;52.690;6.812;2022-07-04T23:50:08;2.47;;;0.60;;
52918;SDS011;38793;52.690;6.812;2022-07-04T23:52:34;0.45;;;0.40;;
52918;SDS011;38793;52.690;6.812;2022-07-04T23:54:59;0.70;;;0.50;;
52918;SDS011;38793;52.690;6.812;2022-07-04T23:57:25;0.85;;;0.70;;
52918;SDS011;38793;52.690;6.812;2022-07-04T23:59:50;1.02;;;0.40;;
